sensor_id;sensor_type;location;lat;lon;timestamp;pressure;altitude;pressure_sealevel;temperature;humidity
9822;BME280;4950;46.042;14.472;2023-05-12T00:02:10;97659.47;;;12.60;94.94
9822;BME280;4950;46.042;14.472;2023-05-12T00:04:37;97656.66;;;12.61;94.98
9822;BME280;4950;46.042;14.472;2023-05-12T00:07:04;97651.84;;;12.58;95.00
9822;BME280;4950;46.042;14.472;2023-05-12T00:09:33;97657.66;;;12.60;95.18
9822;BME280;4950;46.042;14.472;2023-05-12T00:12:00;97658.03;;;12.57;95.21
9822;BME280;4950;46.042;14.472;2023-05-12T00:14:28;97654.63;;;12.57;95.58
9822;BME280;4950;46.042;14.472;2023-05-12T00:16:54;97656.66;;;12.61;95.40
9822;BME280;4950;46.042;14.472;2023-05-12T00:19:21;97654.88;;;12.62;95.02
9822;BME280;4950;46.042;14.472;2023-05-12T00:21:47;97654.06;;;12.61;94.96
9822;BME280;4950;46.042;14.472;2023-05-12T00:24:14;97646.66;;;12.58;94.85
9822;BME280;4950;46.042;14.472;2023-05-12T00:26:42;97650.66;;;12.61;94.82
9822;BME280;4950;46.042;14.472;2023-05-12T00:29:09;97637.63;;;12.61;95.09
9822;BME280;4950;46.042;14.472;2023-05-12T00:31:35;97644.03;;;12.58;94.84
9822;BME280;4950;46.042;14.472;2023-05-12T00:34:02;97646.66;;;12.58;95.11
9822;BME280;4950;46.042;14.472;2023-05-12T00:36:28;97637.81;;;12.59;95.29
9822;BME280;4950;46.042;14.472;2023-05-12T00:38:55;97641.44;;;12.58;95.07
9822;BME280;4950;46.042;14.472;2023-05-12T00:41:22;97641.88;;;12.62;95.44
9822;BME280;4950;46.042;14.472;2023-05-12T00:43:50;97640.63;;;12.58;95.65
9822;BME280;4950;46.042;14.472;2023-05-12T00:46:17;97637.22;;;12.57;95.71
9822;BME280;4950;46.042;14.472;2023-05-12T00:48:44;97639.81;;;12.57;95.83
9822;BME280;4950;46.042;14.472;2023-05-12T00:51:11;97641.25;;;12.60;95.69
9822;BME280;4950;46.042;14.472;2023-05-12T00:53:38;97633.38;;;12.53;95.99
9822;BME280;4950;46.042;14.472;2023-05-12T00:56:06;97632.22;;;12.56;96.15
9822;BME280;4950;46.042;14.472;2023-05-12T00:58:33;97630.59;;;12.55;96.12
9822;BME280;4950;46.042;14.472;2023-05-12T01:01:01;97630.00;;;12.53;96.02
9822;BME280;4950;46.042;14.472;2023-05-12T01:03:27;97628.78;;;12.55;96.22
9822;BME280;4950;46.042;14.472;2023-05-12T01:05:59;97629.41;;;12.57;95.89
9822;BME280;4950;46.042;14.472;2023-05-12T01:08:31;97635.22;;;12.59;95.93
9822;BME280;4950;46.042;14.472;2023-05-12T01:10:58;97628.22;;;12.60;95.86
9822;BME280;4950;46.042;14.472;2023-05-12T01:13:25;97624.63;;;12.61;95.86
9822;BME280;4950;46.042;14.472;2023-05-12T01:15:53;97619.81;;;12.58;95.48
9822;BME280;4950;46.042;14.472;2023-05-12T01:18:23;97618.00;;;12.58;95.63
9822;BME280;4950;46.042;14.472;2023-05-12T01:20:50;97618.97;;;12.57;95.82
9822;BME280;4950;46.042;14.472;2023-05-12T01:23:18;97624.59;;;12.54;95.65
9822;BME280;4950;46.042;14.472;2023-05-12T01:25:46;97613.38;;;12.54;95.88
9822;BME280;4950;46.042;14.472;2023-05-12T01:28:16;97620.38;;;12.53;95.91
9822;BME280;4950;46.042;14.472;2023-05-12T01:30:45;97629.19;;;12.52;95.90
9822;BME280;4950;46.042;14.472;2023-05-12T01:33:12;97628.19;;;12.53;96.02
9822;BME280;4950;46.042;14.472;2023-05-12T01:35:39;97631.22;;;12.57;96.04
9822;BME280;4950;46.042;14.472;2023-05-12T01:38:05;97628.22;;;12.60;95.72
9822;BME280;4950;46.042;14.472;2023-05-12T01:40:32;97627.41;;;12.59;95.76
9822;BME280;4950;46.042;14.472;2023-05-12T01:42:58;97637.81;;;12.59;95.78
9822;BME280;4950;46.042;14.472;2023-05-12T01:45:26;97628.00;;;12.61;95.99
9822;BME280;4950;46.042;14.472;2023-05-12T01:47:53;97626.22;;;12.62;95.76
9822;BME280;4950;46.042;14.472;2023-05-12T01:50:19;97632.63;;;12.59;95.59
9822;BME280;4950;46.042;14.472;2023-05-12T01:52:46;97626.22;;;12.62;95.69
9822;BME280;4950;46.042;14.472;2023-05-12T01:55:13;97629.41;;;12.57;95.44
9822;BME280;4950;46.042;14.472;2023-05-12T01:57:40;97631.59;;;12.54;95.84
9822;BME280;4950;46.042;14.472;2023-05-12T02:00:08;97628.19;;;12.53;96.28
9822;BME280;4950;46.042;14.472;2023-05-12T02:02:36;97624.78;;;12.53;96.25
9822;BME280;4950;46.042;14.472;2023-05-12T02:05:03;97625.56;;;12.53;96.39
9822;BME280;4950;46.042;14.472;2023-05-12T02:07:29;97617.94;;;12.52;96.26
9822;BME280;4950;46.042;14.472;2023-05-12T02:09:56;97628.19;;;12.53;96.44
9822;BME280;4950;46.042;14.472;2023-05-12T02:12:22;97622.97;;;12.53;96.14
9822;BME280;4950;46.042;14.472;2023-05-12T02:14:49;97628.19;;;12.53;96.27
9822;BME280;4950;46.042;14.472;2023-05-12T02:17:16;97629.00;;;12.54;96.42
9822;BME280;4950;46.042;14.472;2023-05-12T02:19:46;97624.59;;;12.54;96.39
9822;BME280;4950;46.042;14.472;2023-05-12T02:22:13;97621.38;;;12.52;96.42
9822;BME280;4950;46.042;14.472;2023-05-12T02:24:39;97616.59;;;12.56;96.53
9822;BME280;4950;46.042;14.472;2023-05-12T02:27:06;97614.59;;;12.58;96.47
9822;BME280;4950;46.042;14.472;2023-05-12T02:29:32;97609.59;;;12.56;96.33
9822;BME280;4950;46.042;14.472;2023-05-12T02:31:59;97612.00;;;12.58;96.58
9822;BME280;4950;46.042;14.472;2023-05-12T02:34:25;97618.59;;;12.60;96.56
9822;BME280;4950;46.042;14.472;2023-05-12T02:36:53;97613.59;;;12.59;96.51
9822;BME280;4950;46.042;14.472;2023-05-12T02:39:20;97608.56;;;12.57;96.39
9822;BME280;4950;46.042;14.472;2023-05-12T02:41:46;97612.78;;;12.58;96.42
9822;BME280;4950;46.042;14.472;2023-05-12T02:44:13;97612.38;;;12.55;96.27
9822;BME280;4950;46.042;14.472;2023-05-12T02:46:40;97612.19;;;12.56;96.08
9822;BME280;4950;46.042;14.472;2023-05-12T02:49:07;97614.78;;;12.56;96.03
9822;BME280;4950;46.042;14.472;2023-05-12T02:51:34;97615.78;;;12.55;96.24
9822;BME280;4950;46.042;14.472;2023-05-12T02:54:02;97608.78;;;12.56;96.22
9822;BME280;4950;46.042;14.472;2023-05-12T02:56:28;97612.56;;;12.53;95.99
9822;BME280;4950;46.042;14.472;2023-05-12T02:58:55;97622.97;;;12.53;96.22
9822;BME280;4950;46.042;14.472;2023-05-12T03:01:21;97613.56;;;12.52;96.07
9822;BME280;4950;46.042;14.472;2023-05-12T03:03:48;97612.75;;;12.52;96.00
9822;BME280;4950;46.042;14.472;2023-05-12T03:06:15;97621.75;;;12.49;96.10
9822;BME280;4950;46.042;14.472;2023-05-12T03:08:41;97617.75;;;12.47;96.43
9822;BME280;4950;46.042;14.472;2023-05-12T03:11:09;97617.34;;;12.50;96.27
9822;BME280;4950;46.042;14.472;2023-05-12T03:13:36;97622.56;;;12.50;96.45
9822;BME280;4950;46.042;14.472;2023-05-12T03:16:03;97616.16;;;12.52;96.27
9822;BME280;4950;46.042;14.472;2023-05-12T03:18:30;97623.97;;;12.52;96.38
9822;BME280;4950;46.042;14.472;2023-05-12T03:20:56;97616.34;;;12.51;96.21
9822;BME280;4950;46.042;14.472;2023-05-12T03:23:23;97626.97;;;12.49;96.35
9822;BME280;4950;46.042;14.472;2023-05-12T03:25:49;97624.59;;;12.54;96.30
9822;BME280;4950;46.042;14.472;2023-05-12T03:28:17;97614.97;;;12.55;96.07
9822;BME280;4950;46.042;14.472;2023-05-12T03:30:44;97620.97;;;12.55;96.25
9822;BME280;4950;46.042;14.472;2023-05-12T03:33:11;97628.78;;;12.55;96.19
9822;BME280;4950;46.042;14.472;2023-05-12T03:35:37;97624.78;;;12.53;96.08
9822;BME280;4950;46.042;14.472;2023-05-12T03:38:04;97626.78;;;12.51;96.38
9822;BME280;4950;46.042;14.472;2023-05-12T03:40:31;97624.97;;;12.51;96.09
9822;BME280;4950;46.042;14.472;2023-05-12T03:42:57;97624.97;;;12.51;96.34
9822;BME280;4950;46.042;14.472;2023-05-12T03:45:25;97620.56;;;12.52;96.18
9822;BME280;4950;46.042;14.472;2023-05-12T03:47:52;97625.38;;;12.55;96.45
9822;BME280;4950;46.042;14.472;2023-05-12T03:50:18;97627.81;;;12.56;96.00
9822;BME280;4950;46.042;14.472;2023-05-12T03:52:45;97632.63;;;12.59;96.07
9822;BME280;4950;46.042;14.472;2023-05-12T03:55:12;97629.03;;;12.60;96.21
9822;BME280;4950;46.042;14.472;2023-05-12T03:57:38;97622.81;;;12.61;95.92
9822;BME280;4950;46.042;14.472;2023-05-12T04:00:06;97628.22;;;12.60;95.78
9822;BME280;4950;46.042;14.472;2023-05-12T04:02:34;97635.22;;;12.59;95.97
9822;BME280;4950;46.042;14.472;2023-05-12T04:05:01;97631.38;;;12.55;95.88
9822;BME280;4950;46.042;14.472;2023-05-12T04:07:27;97630.41;;;12.56;95.82
9822;BME280;4950;46.042;14.472;2023-05-12T04:09:54;97631.38;;;12.55;96.00
9822;BME280;4950;46.042;14.472;2023-05-12T04:12:21;97631.22;;;12.57;95.87
9822;BME280;4950;46.042;14.472;2023-05-12T04:14:47;97632.00;;;12.57;95.95
9822;BME280;4950;46.042;14.472;2023-05-12T04:17:14;97622.59;;;12.56;95.81
9822;BME280;4950;46.042;14.472;2023-05-12T04:19:44;97636.00;;;12.53;96.00
9822;BME280;4950;46.042;14.472;2023-05-12T04:22:11;97637.00;;;12.52;96.02
9822;BME280;4950;46.042;14.472;2023-05-12T04:24:38;97638.59;;;12.53;96.01
9822;BME280;4950;46.042;14.472;2023-05-12T04:27:05;97637.63;;;12.54;96.03
9822;BME280;4950;46.042;14.472;2023-05-12T04:29:32;97641.19;;;12.53;96.19
9822;BME280;4950;46.042;14.472;2023-05-12T04:31:59;97640.03;;;12.56;96.40
9822;BME280;4950;46.042;14.472;2023-05-12T04:34:25;97645.03;;;12.57;96.29
9822;BME280;4950;46.042;14.472;2023-05-12T04:36:53;97649.63;;;12.55;96.12
9822;BME280;4950;46.042;14.472;2023-05-12T04:39:20;97646.22;;;12.55;96.16
9822;BME280;4950;46.042;14.472;2023-05-12T04:41:46;97645.25;;;12.56;95.73
9822;BME280;4950;46.042;14.472;2023-05-12T04:44:13;97647.63;;;12.57;95.96
9822;BME280;4950;46.042;14.472;2023-05-12T04:46:39;97640.63;;;12.58;96.02
9822;BME280;4950;46.042;14.472;2023-05-12T04:49:07;97653.44;;;12.59;95.60
9822;BME280;4950;46.042;14.472;2023-05-12T04:51:34;97652.47;;;12.60;95.84
9822;BME280;4950;46.042;14.472;2023-05-12T04:54:07;97654.06;;;12.61;96.01
9822;BME280;4950;46.042;14.472;2023-05-12T04:56:34;97664.09;;;12.64;96.07
9822;BME280;4950;46.042;14.472;2023-05-12T04:59:01;97653.69;;;12.64;95.94
9822;BME280;4950;46.042;14.472;2023-05-12T05:01:27;97660.28;;;12.67;96.09
9822;BME280;4950;46.042;14.472;2023-05-12T05:03:54;97658.31;;;12.69;95.96
9822;BME280;4950;46.042;14.472;2023-05-12T05:06:21;97654.72;;;12.70;95.85
9822;BME280;4950;46.042;14.472;2023-05-12T05:08:47;97655.13;;;12.74;95.96
9822;BME280;4950;46.042;14.472;2023-05-12T05:11:15;97650.91;;;12.73;96.02
9822;BME280;4950;46.042;14.472;2023-05-12T05:13:42;97656.94;;;12.73;96.07
9822;BME280;4950;46.042;14.472;2023-05-12T05:16:08;97655.13;;;12.74;96.13
9822;BME280;4950;46.042;14.472;2023-05-12T05:18:35;97646.31;;;12.75;96.11
9822;BME280;4950;46.042;14.472;2023-05-12T05:21:02;97653.13;;;12.76;96.09
9822;BME280;4950;46.042;14.472;2023-05-12T05:23:28;97656.28;;;12.64;96.35
9822;BME280;4950;46.042;14.472;2023-05-12T05:25:55;97664.34;;;12.70;96.35
9822;BME280;4950;46.042;14.472;2023-05-12T05:28:23;97661.91;;;12.68;95.48
9822;BME280;4950;46.042;14.472;2023-05-12T05:30:50;97668.13;;;12.67;95.20
9822;BME280;4950;46.042;14.472;2023-05-12T05:33:17;97668.50;;;12.64;95.09
9822;BME280;4950;46.042;14.472;2023-05-12T05:35:44;97665.91;;;12.64;94.78
9822;BME280;4950;46.042;14.472;2023-05-12T05:38:12;97666.69;;;12.64;94.56
9822;BME280;4950;46.042;14.472;2023-05-12T05:40:38;97666.72;;;12.71;94.34
9822;BME280;4950;46.042;14.472;2023-05-12T05:43:05;97674.97;;;12.75;94.69
9822;BME280;4950;46.042;14.472;2023-05-12T05:45:33;97671.94;;;12.71;94.27
9822;BME280;4950;46.042;14.472;2023-05-12T05:48:00;97669.91;;;12.67;94.11
9822;BME280;4950;46.042;14.472;2023-05-12T05:50:26;97667.38;;;12.73;94.45
9822;BME280;4950;46.042;14.472;2023-05-12T05:52:53;97670.00;;;12.80;94.37
9822;BME280;4950;46.042;14.472;2023-05-12T05:55:20;97676.22;;;12.86;94.07
9822;BME280;4950;46.042;14.472;2023-05-12T05:57:47;97664.41;;;12.90;94.09
9822;BME280;4950;46.042;14.472;2023-05-12T06:00:14;97681.25;;;12.87;93.81
9822;BME280;4950;46.042;14.472;2023-05-12T06:02:42;97680.03;;;12.83;93.45
9822;BME280;4950;46.042;14.472;2023-05-12T06:05:09;97681.25;;;12.87;93.36
9822;BME280;4950;46.042;14.472;2023-05-12T06:07:36;97686.84;;;12.84;93.14
9822;BME280;4950;46.042;14.472;2023-05-12T06:10:04;97688.47;;;12.85;93.07
9822;BME280;4950;46.042;14.472;2023-05-12T06:12:30;97687.06;;;12.89;93.64
9822;BME280;4950;46.042;14.472;2023-05-12T06:14:57;97686.09;;;12.97;93.77
9822;BME280;4950;46.042;14.472;2023-05-12T06:17:23;97695.31;;;12.99;93.28
9822;BME280;4950;46.042;14.472;2023-05-12T06:19:51;97689.72;;;13.02;93.57
9822;BME280;4950;46.042;14.472;2023-05-12T06:22:18;97696.13;;;13.00;93.05
9822;BME280;4950;46.042;14.472;2023-05-12T06:24:45;97683.88;;;13.00;92.99
9822;BME280;4950;46.042;14.472;2023-05-12T06:27:11;97692.91;;;12.98;92.52
9822;BME280;4950;46.042;14.472;2023-05-12T06:29:38;97697.34;;;13.04;92.61
9822;BME280;4950;46.042;14.472;2023-05-12T06:32:05;97691.56;;;13.09;91.97
9822;BME280;4950;46.042;14.472;2023-05-12T06:34:32;97687.56;;;13.13;91.47
9822;BME280;4950;46.042;14.472;2023-05-12T06:36:59;97692.19;;;13.17;91.62
9822;BME280;4950;46.042;14.472;2023-05-12T06:39:26;97686.38;;;13.22;91.93
9822;BME280;4950;46.042;14.472;2023-05-12T06:41:53;97689.81;;;13.22;90.94
9822;BME280;4950;46.042;14.472;2023-05-12T06:44:19;97695.03;;;13.22;90.96
9822;BME280;4950;46.042;14.472;2023-05-12T06:46:48;97697.03;;;13.27;90.69
9822;BME280;4950;46.042;14.472;2023-05-12T06:49:14;97699.91;;;13.32;90.17
9822;BME280;4950;46.042;14.472;2023-05-12T06:51:41;97699.50;;;13.35;89.63
9822;BME280;4950;46.042;14.472;2023-05-12T06:54:09;97700.91;;;13.38;89.38
9822;BME280;4950;46.042;14.472;2023-05-12T06:56:36;97698.69;;;13.41;88.52
9822;BME280;4950;46.042;14.472;2023-05-12T06:59:04;97698.31;;;13.45;86.45
9822;BME280;4950;46.042;14.472;2023-05-12T07:01:31;97696.69;;;13.37;86.68
9822;BME280;4950;46.042;14.472;2023-05-12T07:03:58;97699.13;;;13.45;86.52
9822;BME280;4950;46.042;14.472;2023-05-12T07:06:25;97694.91;;;13.44;87.86
9822;BME280;4950;46.042;14.472;2023-05-12T07:08:52;97688.72;;;13.52;87.13
9822;BME280;4950;46.042;14.472;2023-05-12T07:11:20;97693.13;;;13.58;85.87
9822;BME280;4950;46.042;14.472;2023-05-12T07:13:47;97694.31;;;13.49;87.10
9822;BME280;4950;46.042;14.472;2023-05-12T07:16:14;97690.13;;;13.48;87.34
9822;BME280;4950;46.042;14.472;2023-05-12T07:18:41;97693.94;;;13.52;88.33
9822;BME280;4950;46.042;14.472;2023-05-12T07:21:07;97698.97;;;13.60;88.44
9822;BME280;4950;46.042;14.472;2023-05-12T07:23:35;97694.72;;;13.59;87.45
9822;BME280;4950;46.042;14.472;2023-05-12T07:26:03;97702.56;;;13.59;87.48
9822;BME280;4950;46.042;14.472;2023-05-12T07:28:33;97700.78;;;13.66;84.91
9822;BME280;4950;46.042;14.472;2023-05-12T07:31:01;97712.22;;;13.65;85.23
9822;BME280;4950;46.042;14.472;2023-05-12T07:33:27;97708.00;;;13.71;85.53
9822;BME280;4950;46.042;14.472;2023-05-12T07:35:54;97700.16;;;13.71;84.43
9822;BME280;4950;46.042;14.472;2023-05-12T07:38:20;97706.00;;;13.66;85.16
9822;BME280;4950;46.042;14.472;2023-05-12T07:40:48;97710.03;;;13.75;83.77
9822;BME280;4950;46.042;14.472;2023-05-12T07:43:14;97706.81;;;13.73;83.40
9822;BME280;4950;46.042;14.472;2023-05-12T07:45:44;97712.63;;;13.75;83.46
9822;BME280;4950;46.042;14.472;2023-05-12T07:48:11;97715.66;;;13.86;82.07
9822;BME280;4950;46.042;14.472;2023-05-12T07:50:38;97711.84;;;13.75;82.45
9822;BME280;4950;46.042;14.472;2023-05-12T07:53:05;97708.78;;;13.65;81.61
9822;BME280;4950;46.042;14.472;2023-05-12T07:55:31;97717.25;;;13.73;82.35
9822;BME280;4950;46.042;14.472;2023-05-12T07:57:58;97714.03;;;13.71;83.15
9822;BME280;4950;46.042;14.472;2023-05-12T08:00:25;97710.41;;;13.72;82.31
9822;BME280;4950;46.042;14.472;2023-05-12T08:02:53;97716.41;;;13.73;82.15
9822;BME280;4950;46.042;14.472;2023-05-12T08:05:20;97719.44;;;13.70;82.54
9822;BME280;4950;46.042;14.472;2023-05-12T08:07:46;97720.28;;;13.77;83.51
9822;BME280;4950;46.042;14.472;2023-05-12T08:10:13;97719.66;;;13.81;81.53
9822;BME280;4950;46.042;14.472;2023-05-12T08:12:40;97721.06;;;13.77;81.48
9822;BME280;4950;46.042;14.472;2023-05-12T08:15:07;97726.47;;;13.76;81.11
9822;BME280;4950;46.042;14.472;2023-05-12T08:17:34;97722.06;;;13.76;81.30
9822;BME280;4950;46.042;14.472;2023-05-12T08:20:03;97721.47;;;13.88;81.75
9822;BME280;4950;46.042;14.472;2023-05-12T08:22:30;97726.88;;;13.79;81.18
9822;BME280;4950;46.042;14.472;2023-05-12T08:24:58;97730.31;;;13.87;81.36
9822;BME280;4950;46.042;14.472;2023-05-12T08:27:24;97722.88;;;13.83;81.78
9822;BME280;4950;46.042;14.472;2023-05-12T08:29:51;97725.88;;;13.80;82.17
9822;BME280;4950;46.042;14.472;2023-05-12T08:32:17;97730.09;;;13.75;82.62
9822;BME280;4950;46.042;14.472;2023-05-12T08:34:44;97729.28;;;13.74;83.02
9822;BME280;4950;46.042;14.472;2023-05-12T08:37:12;97730.50;;;13.85;82.38
9822;BME280;4950;46.042;14.472;2023-05-12T08:39:39;97733.31;;;13.90;82.09
9822;BME280;4950;46.042;14.472;2023-05-12T08:42:12;97735.53;;;13.87;82.33
9822;BME280;4950;46.042;14.472;2023-05-12T08:44:42;97731.50;;;13.77;82.79
9822;BME280;4950;46.042;14.472;2023-05-12T08:47:10;97737.31;;;13.79;82.40
9822;BME280;4950;46.042;14.472;2023-05-12T08:49:38;97729.69;;;13.78;79.67
9822;BME280;4950;46.042;14.472;2023-05-12T08:52:06;97737.72;;;13.70;80.40
9822;BME280;4950;46.042;14.472;2023-05-12T08:54:35;97740.91;;;13.72;80.87
9822;BME280;4950;46.042;14.472;2023-05-12T08:57:03;97748.34;;;13.68;81.97
9822;BME280;4950;46.042;14.472;2023-05-12T08:59:30;97749.34;;;13.67;83.24
9822;BME280;4950;46.042;14.472;2023-05-12T09:01:57;97745.31;;;13.58;84.42
9822;BME280;4950;46.042;14.472;2023-05-12T09:04:26;97748.50;;;13.60;84.83
9822;BME280;4950;46.042;14.472;2023-05-12T09:06:52;97756.16;;;13.68;84.71
9822;BME280;4950;46.042;14.472;2023-05-12T09:09:19;97752.72;;;13.61;84.56
9822;BME280;4950;46.042;14.472;2023-05-12T09:11:48;97754.53;;;13.60;83.21
9822;BME280;4950;46.042;14.472;2023-05-12T09:14:17;97753.53;;;13.61;83.61
9822;BME280;4950;46.042;14.472;2023-05-12T09:16:52;97759.00;;;13.73;84.13
9822;BME280;4950;46.042;14.472;2023-05-12T09:19:21;97763.38;;;13.73;85.01
9822;BME280;4950;46.042;14.472;2023-05-12T09:21:47;97763.97;;;13.68;85.06
9822;BME280;4950;46.042;14.472;2023-05-12T09:24:14;97769.84;;;13.77;84.44
9822;BME280;4950;46.042;14.472;2023-05-12T09:26:45;97765.81;;;13.74;83.68
9822;BME280;4950;46.042;14.472;2023-05-12T09:29:13;97770.59;;;13.64;84.91
9822;BME280;4950;46.042;14.472;2023-05-12T09:31:48;97766.00;;;13.66;84.86
9822;BME280;4950;46.042;14.472;2023-05-12T09:34:15;97768.78;;;13.65;85.00
9822;BME280;4950;46.042;14.472;2023-05-12T09:36:41;97768.22;;;13.69;86.20
9822;BME280;4950;46.042;14.472;2023-05-12T09:39:08;97764.22;;;13.73;86.97
9822;BME280;4950;46.042;14.472;2023-05-12T09:41:35;97768.41;;;13.74;87.43
9822;BME280;4950;46.042;14.472;2023-05-12T09:44:02;97776.03;;;13.76;85.92
9822;BME280;4950;46.042;14.472;2023-05-12T09:46:30;97781.22;;;13.62;85.90
9822;BME280;4950;46.042;14.472;2023-05-12T09:48:57;97769.63;;;13.72;85.94
9822;BME280;4950;46.042;14.472;2023-05-12T09:51:24;97776.59;;;13.65;86.72
9822;BME280;4950;46.042;14.472;2023-05-12T09:53:51;97775.41;;;13.60;87.83
9822;BME280;4950;46.042;14.472;2023-05-12T09:56:18;97780.97;;;13.51;85.71
9822;BME280;4950;46.042;14.472;2023-05-12T09:58:46;97776.97;;;13.48;85.38
9822;BME280;4950;46.042;14.472;2023-05-12T10:01:14;97772.78;;;13.54;85.23
9822;BME280;4950;46.042;14.472;2023-05-12T10:03:44;97776.19;;;13.61;85.44
9822;BME280;4950;46.042;14.472;2023-05-12T10:06:14;97774.38;;;13.55;86.46
9822;BME280;4950;46.042;14.472;2023-05-12T10:08:44;97772.81;;;13.67;86.79
9822;BME280;4950;46.042;14.472;2023-05-12T10:11:13;97772.78;;;13.54;87.84
9822;BME280;4950;46.042;14.472;2023-05-12T10:13:40;97777.75;;;13.49;86.64
9822;BME280;4950;46.042;14.472;2023-05-12T10:16:07;97770.78;;;13.62;85.18
9822;BME280;4950;46.042;14.472;2023-05-12T10:18:33;97777.06;;;13.75;85.15
9822;BME280;4950;46.042;14.472;2023-05-12T10:21:02;97770.03;;;13.75;85.97
9822;BME280;4950;46.042;14.472;2023-05-12T10:23:30;97769.44;;;13.73;87.11
9822;BME280;4950;46.042;14.472;2023-05-12T10:25:57;97764.59;;;13.70;87.32
9822;BME280;4950;46.042;14.472;2023-05-12T10:28:26;97768.59;;;13.73;85.44
9822;BME280;4950;46.042;14.472;2023-05-12T10:30:53;97767.63;;;13.74;86.89
9822;BME280;4950;46.042;14.472;2023-05-12T10:33:20;97773.81;;;13.73;86.40
9822;BME280;4950;46.042;14.472;2023-05-12T10:35:47;97773.63;;;13.74;85.37
9822;BME280;4950;46.042;14.472;2023-05-12T10:38:16;97768.03;;;13.77;84.51
9822;BME280;4950;46.042;14.472;2023-05-12T10:40:58;97781.91;;;13.85;82.29
9822;BME280;4950;46.042;14.472;2023-05-12T10:43:26;97778.88;;;13.81;83.05
9822;BME280;4950;46.042;14.472;2023-05-12T10:46:14;97780.06;;;13.78;84.31
9822;BME280;4950;46.042;14.472;2023-05-12T10:48:52;97772.22;;;13.78;85.38
9822;BME280;4950;46.042;14.472;2023-05-12T10:51:20;97783.69;;;13.77;84.05
9822;BME280;4950;46.042;14.472;2023-05-12T10:53:55;97773.25;;;13.84;85.77
9822;BME280;4950;46.042;14.472;2023-05-12T10:56:24;97781.91;;;13.91;86.60
9822;BME280;4950;46.042;14.472;2023-05-12T10:59:10;97777.66;;;13.83;87.26
9822;BME280;4950;46.042;14.472;2023-05-12T11:01:38;97783.28;;;13.80;87.42
9822;BME280;4950;46.042;14.472;2023-05-12T11:04:09;97782.69;;;13.85;86.38
9822;BME280;4950;46.042;14.472;2023-05-12T11:06:37;97790.72;;;13.83;86.55
9822;BME280;4950;46.042;14.472;2023-05-12T11:09:05;97789.72;;;13.85;87.76
9822;BME280;4950;46.042;14.472;2023-05-12T11:11:31;97786.13;;;13.99;88.16
9822;BME280;4950;46.042;14.472;2023-05-12T11:13:58;97788.72;;;13.92;90.06
9822;BME280;4950;46.042;14.472;2023-05-12T11:16:26;97789.53;;;13.99;89.77
9822;BME280;4950;46.042;14.472;2023-05-12T11:19:00;97786.56;;;14.02;86.86
9822;BME280;4950;46.042;14.472;2023-05-12T11:21:27;97794.38;;;14.02;88.05
9822;BME280;4950;46.042;14.472;2023-05-12T11:23:54;97787.34;;;13.96;88.31
9822;BME280;4950;46.042;14.472;2023-05-12T11:26:22;97791.16;;;14.00;88.30
9822;BME280;4950;46.042;14.472;2023-05-12T11:28:49;97779.91;;;14.00;87.74
9822;BME280;4950;46.042;14.472;2023-05-12T11:31:16;97788.78;;;14.12;86.90
9822;BME280;4950;46.042;14.472;2023-05-12T11:33:44;97788.38;;;14.09;87.71
9822;BME280;4950;46.042;14.472;2023-05-12T11:36:10;97788.75;;;14.06;87.14
9822;BME280;4950;46.042;14.472;2023-05-12T11:38:37;97786.31;;;14.04;86.20
9822;BME280;4950;46.042;14.472;2023-05-12T11:41:04;97789.97;;;14.10;86.84
9822;BME280;4950;46.042;14.472;2023-05-12T11:43:32;97792.38;;;14.05;87.90
9822;BME280;4950;46.042;14.472;2023-05-12T11:45:58;97790.56;;;14.12;86.62
9822;BME280;4950;46.042;14.472;2023-05-12T11:48:31;97790.97;;;14.15;87.46
9822;BME280;4950;46.042;14.472;2023-05-12T11:50:59;97797.22;;;14.14;87.88
9822;BME280;4950;46.042;14.472;2023-05-12T11:53:25;97791.56;;;14.17;87.98
9822;BME280;4950;46.042;14.472;2023-05-12T11:55:53;97796.59;;;14.19;89.49
9822;BME280;4950;46.042;14.472;2023-05-12T11:58:22;97796.00;;;14.23;89.45
9822;BME280;4950;46.042;14.472;2023-05-12T12:00:52;97799.84;;;14.28;87.51
9822;BME280;4950;46.042;14.472;2023-05-12T12:03:19;97796.44;;;14.34;85.49
9822;BME280;4950;46.042;14.472;2023-05-12T12:05:56;97796.84;;;14.37;85.86
9822;BME280;4950;46.042;14.472;2023-05-12T12:08:23;97800.03;;;14.46;86.05
9822;BME280;4950;46.042;14.472;2023-05-12T12:10:50;97803.06;;;14.30;83.97
9822;BME280;4950;46.042;14.472;2023-05-12T12:13:19;97800.03;;;14.46;83.48
9822;BME280;4950;46.042;14.472;2023-05-12T12:15:46;97800.06;;;14.39;82.73
9822;BME280;4950;46.042;14.472;2023-05-12T12:18:13;97796.22;;;14.35;84.72
9822;BME280;4950;46.042;14.472;2023-05-12T12:20:41;97800.22;;;14.45;85.40
9822;BME280;4950;46.042;14.472;2023-05-12T12:23:07;97798.03;;;14.48;84.28
9822;BME280;4950;46.042;14.472;2023-05-12T12:25:34;97795.03;;;14.51;85.46
9822;BME280;4950;46.042;14.472;2023-05-12T12:28:01;97787.59;;;14.55;86.00
9822;BME280;4950;46.042;14.472;2023-05-12T12:30:28;97793.00;;;14.53;85.28
9822;BME280;4950;46.042;14.472;2023-05-12T12:32:55;97785.63;;;14.57;85.67
9822;BME280;4950;46.042;14.472;2023-05-12T12:35:23;97792.41;;;14.78;84.09
9822;BME280;4950;46.042;14.472;2023-05-12T12:37:50;97791.00;;;14.75;81.97
9822;BME280;4950;46.042;14.472;2023-05-12T12:40:17;97792.41;;;14.78;81.31
9822;BME280;4950;46.042;14.472;2023-05-12T12:42:44;97791.63;;;14.71;83.10
9822;BME280;4950;46.042;14.472;2023-05-12T12:45:11;97794.44;;;14.63;85.03
9822;BME280;4950;46.042;14.472;2023-05-12T12:47:38;97792.44;;;14.71;85.35
9822;BME280;4950;46.042;14.472;2023-05-12T12:50:06;97792.00;;;14.74;85.43
9822;BME280;4950;46.042;14.472;2023-05-12T12:52:35;97792.81;;;14.75;86.05
9822;BME280;4950;46.042;14.472;2023-05-12T12:55:02;97797.03;;;14.89;85.12
9822;BME280;4950;46.042;14.472;2023-05-12T12:57:29;97793.59;;;14.82;84.96
9822;BME280;4950;46.042;14.472;2023-05-12T12:59:56;97791.41;;;14.72;86.47
9822;BME280;4950;46.042;14.472;2023-05-12T13:02:22;97791.00;;;14.75;86.56
9822;BME280;4950;46.042;14.472;2023-05-12T13:04:49;97789.41;;;14.81;86.33
9822;BME280;4950;46.042;14.472;2023-05-12T13:07:16;97784.19;;;14.81;84.78
9822;BME280;4950;46.042;14.472;2023-05-12T13:09:44;97793.81;;;14.80;85.21
9822;BME280;4950;46.042;14.472;2023-05-12T13:12:10;97794.41;;;14.76;84.93